sensor_id;sensor_type;location;lat;lon;timestamp;P1;durP1;ratioP1;P2;durP2;ratioP2
60416;SDS011;46263;44.726;10.396;2024-03-23T00:53:28;8.85;;;4.38;;
60416;SDS011;46263;44.726;10.396;2024-03-23T00:55:54;10.77;;;6.05;;
60416;SDS011;46263;44.726;10.396;2024-03-23T00:58:19;9.02;;;5.82;;
60416;SDS011;46263;44.726;10.396;2024-03-23T01:00:44;8.63;;;5.38;;
60416;SDS011;46263;44.726;10.396;2024-03-23T01:03:10;9.10;;;5.50;;
60416;SDS011;46263;44.726;10.396;2024-03-23T01:05:36;11.60;;;5.10;;
60416;SDS011;46263;44.726;10.396;2024-03-23T01:08:01;11.82;;;5.88;;
60416;SDS011;46263;44.726;10.396;2024-03-23T01:10:27;9.43;;;4.65;;
60416;SDS011;46263;44.726;10.396;2024-03-23T01:12:52;7.80;;;4.95;;
60416;SDS011;46263;44.726;10.396;2024-03-23T01:15:18;7.88;;;5.25;;
60416;SDS011;46263;44.726;10.396;2024-03-23T01:17:43;8.18;;;5.30;;
60416;SDS011;46263;44.726;10.396;2024-03-23T01:20:09;7.28;;;5.13;;
60416;SDS011;46263;44.726;10.396;2024-03-23T01:22:35;8.43;;;4.90;;
60416;SDS011;46263;44.726;10.396;2024-03-23T01:25:01;8.40;;;5.13;;
60416;SDS011;46263;44.726;10.396;2024-03-23T01:27:26;8.52;;;4.72;;
60416;SDS011;46263;44.726;10.396;2024-03-23T01:29:51;6.85;;;4.55;;
60416;SDS011;46263;44.726;10.396;2024-03-23T01:32:20;8.68;;;4.95;;
60416;SDS011;46263;44.726;10.396;2024-03-23T01:34:45;10.18;;;4.50;;
60416;SDS011;46263;44.726;10.396;2024-03-23T01:37:11;12.98;;;4.95;;
60416;SDS011;46263;44.726;10.396;2024-03-23T01:39:36;14.57;;;5.55;;
60416;SDS011;46263;44.726;10.396;2024-03-23T01:42:02;8.95;;;5.35;;
60416;SDS011;46263;44.726;10.396;2024-03-23T01:44:28;7.95;;;5.20;;
60416;SDS011;46263;44.726;10.396;2024-03-23T01:46:53;9.82;;;5.63;;
60416;SDS011;46263;44.726;10.396;2024-03-23T01:49:19;8.25;;;5.22;;
60416;SDS011;46263;44.726;10.396;2024-03-23T01:51:45;9.15;;;5.63;;
60416;SDS011;46263;44.726;10.396;2024-03-23T01:54:11;8.43;;;5.38;;
60416;SDS011;46263;44.726;10.396;2024-03-23T01:56:36;9.10;;;5.15;;
60416;SDS011;46263;44.726;10.396;2024-03-23T01:59:02;12.80;;;6.00;;
60416;SDS011;46263;44.726;10.396;2024-03-23T02:01:31;8.48;;;4.85;;
60416;SDS011;46263;44.726;10.396;2024-03-23T02:03:57;7.78;;;5.07;;
60416;SDS011;46263;44.726;10.396;2024-03-23T02:06:26;10.02;;;5.38;;
60416;SDS011;46263;44.726;10.396;2024-03-23T02:08:52;7.60;;;5.20;;
60416;SDS011;46263;44.726;10.396;2024-03-23T02:11:18;6.95;;;4.93;;
60416;SDS011;46263;44.726;10.396;2024-03-23T02:13:44;6.68;;;4.88;;
60416;SDS011;46263;44.726;10.396;2024-03-23T02:16:09;10.48;;;4.88;;
60416;SDS011;46263;44.726;10.396;2024-03-23T02:18:35;13.88;;;5.05;;
60416;SDS011;46263;44.726;10.396;2024-03-23T02:21:01;9.88;;;5.20;;
60416;SDS011;46263;44.726;10.396;2024-03-23T02:23:26;8.48;;;5.47;;
60416;SDS011;46263;44.726;10.396;2024-03-23T02:25:52;6.95;;;5.18;;
60416;SDS011;46263;44.726;10.396;2024-03-23T02:28:18;6.50;;;4.55;;
60416;SDS011;46263;44.726;10.396;2024-03-23T02:30:44;7.32;;;4.65;;
60416;SDS011;46263;44.726;10.396;2024-03-23T02:33:10;7.75;;;5.10;;
60416;SDS011;46263;44.726;10.396;2024-03-23T02:35:35;9.93;;;5.03;;
60416;SDS011;46263;44.726;10.396;2024-03-23T02:38:01;6.63;;;4.35;;
60416;SDS011;46263;44.726;10.396;2024-03-23T02:40:27;7.07;;;4.80;;
60416;SDS011;46263;44.726;10.396;2024-03-23T02:42:53;9.07;;;5.25;;
60416;SDS011;46263;44.726;10.396;2024-03-23T02:45:18;10.98;;;5.15;;
60416;SDS011;46263;44.726;10.396;2024-03-23T02:47:43;8.07;;;4.43;;
60416;SDS011;46263;44.726;10.396;2024-03-23T02:50:09;8.52;;;4.65;;
60416;SDS011;46263;44.726;10.396;2024-03-23T02:52:35;8.52;;;5.20;;
60416;SDS011;46263;44.726;10.396;2024-03-23T02:55:01;7.85;;;4.50;;
60416;SDS011;46263;44.726;10.396;2024-03-23T02:57:27;7.28;;;4.57;;
60416;SDS011;46263;44.726;10.396;2024-03-23T02:59:53;7.72;;;4.82;;
60416;SDS011;46263;44.726;10.396;2024-03-23T03:02:19;6.88;;;4.40;;
60416;SDS011;46263;44.726;10.396;2024-03-23T03:04:45;7.40;;;4.47;;
60416;SDS011;46263;44.726;10.396;2024-03-23T03:07:10;9.13;;;4.07;;
60416;SDS011;46263;44.726;10.396;2024-03-23T03:09:36;7.45;;;4.18;;
60416;SDS011;46263;44.726;10.396;2024-03-23T03:12:04;9.35;;;4.07;;
60416;SDS011;46263;44.726;10.396;2024-03-23T03:14:30;6.25;;;3.78;;
60416;SDS011;46263;44.726;10.396;2024-03-23T03:16:56;6.25;;;3.78;;
60416;SDS011;46263;44.726;10.396;2024-03-23T03:19:21;6.22;;;4.35;;
60416;SDS011;46263;44.726;10.396;2024-03-23T03:21:47;7.20;;;3.85;;
60416;SDS011;46263;44.726;10.396;2024-03-23T03:24:13;7.93;;;4.10;;
60416;SDS011;46263;44.726;10.396;2024-03-23T03:26:39;6.65;;;3.95;;
60416;SDS011;46263;44.726;10.396;2024-03-23T03:29:04;6.32;;;3.80;;
60416;SDS011;46263;44.726;10.396;2024-03-23T03:31:30;6.00;;;3.47;;
60416;SDS011;46263;44.726;10.396;2024-03-23T03:33:55;9.63;;;4.25;;
60416;SDS011;46263;44.726;10.396;2024-03-23T03:36:20;6.68;;;3.85;;
60416;SDS011;46263;44.726;10.396;2024-03-23T03:38:46;6.35;;;3.67;;
60416;SDS011;46263;44.726;10.396;2024-03-23T03:41:11;7.15;;;4.22;;
60416;SDS011;46263;44.726;10.396;2024-03-23T03:43:37;6.75;;;4.45;;
60416;SDS011;46263;44.726;10.396;2024-03-23T03:46:03;7.50;;;4.47;;
60416;SDS011;46263;44.726;10.396;2024-03-23T03:48:29;6.43;;;4.45;;
60416;SDS011;46263;44.726;10.396;2024-03-23T03:50:54;7.85;;;4.45;;
60416;SDS011;46263;44.726;10.396;2024-03-23T03:53:20;6.88;;;3.97;;
60416;SDS011;46263;44.726;10.396;2024-03-23T03:55:46;7.15;;;3.90;;
60416;SDS011;46263;44.726;10.396;2024-03-23T03:58:11;11.32;;;4.53;;
60416;SDS011;46263;44.726;10.396;2024-03-23T04:00:37;9.77;;;4.20;;
60416;SDS011;46263;44.726;10.396;2024-03-23T04:03:02;4.78;;;3.95;;
60416;SDS011;46263;44.726;10.396;2024-03-23T04:05:28;9.13;;;5.57;;
60416;SDS011;46263;44.726;10.396;2024-03-23T04:07:54;7.47;;;4.25;;
60416;SDS011;46263;44.726;10.396;2024-03-23T04:10:19;6.78;;;4.15;;
60416;SDS011;46263;44.726;10.396;2024-03-23T04:12:47;5.97;;;3.95;;
60416;SDS011;46263;44.726;10.396;2024-03-23T04:15:13;6.70;;;3.75;;
60416;SDS011;46263;44.726;10.396;2024-03-23T04:17:39;6.85;;;4.25;;
60416;SDS011;46263;44.726;10.396;2024-03-23T04:20:04;7.40;;;3.97;;
60416;SDS011;46263;44.726;10.396;2024-03-23T04:22:34;8.05;;;4.65;;
60416;SDS011;46263;44.726;10.396;2024-03-23T04:25:00;7.07;;;4.80;;
60416;SDS011;46263;44.726;10.396;2024-03-23T04:27:31;15.07;;;4.90;;
60416;SDS011;46263;44.726;10.396;2024-03-23T04:29:57;5.30;;;3.70;;
60416;SDS011;46263;44.726;10.396;2024-03-23T04:32:23;6.38;;;4.07;;
60416;SDS011;46263;44.726;10.396;2024-03-23T04:34:48;6.43;;;3.90;;
60416;SDS011;46263;44.726;10.396;2024-03-23T04:37:14;7.88;;;4.45;;
60416;SDS011;46263;44.726;10.396;2024-03-23T04:39:39;8.98;;;4.30;;
60416;SDS011;46263;44.726;10.396;2024-03-23T04:42:05;7.18;;;3.90;;
60416;SDS011;46263;44.726;10.396;2024-03-23T04:44:31;7.45;;;3.90;;
60416;SDS011;46263;44.726;10.396;2024-03-23T04:47:00;6.72;;;4.10;;
60416;SDS011;46263;44.726;10.396;2024-03-23T04:49:25;6.32;;;4.20;;
60416;SDS011;46263;44.726;10.396;2024-03-23T04:51:51;5.07;;;3.72;;
60416;SDS011;46263;44.726;10.396;2024-03-23T04:54:16;6.88;;;3.53;;
60416;SDS011;46263;44.726;10.396;2024-03-23T04:56:42;5.03;;;3.88;;
60416;SDS011;46263;44.726;10.396;2024-03-23T04:59:07;6.72;;;3.58;;
60416;SDS011;46263;44.726;10.396;2024-03-23T05:01:33;4.22;;;3.65;;
60416;SDS011;46263;44.726;10.396;2024-03-23T05:03:59;12.48;;;3.80;;
60416;SDS011;46263;44.726;10.396;2024-03-23T05:06:25;6.00;;;3.28;;
60416;SDS011;46263;44.726;10.396;2024-03-23T05:08:51;7.55;;;3.65;;
60416;SDS011;46263;44.726;10.396;2024-03-23T05:11:17;6.45;;;3.10;;
60416;SDS011;46263;44.726;10.396;2024-03-23T05:13:42;5.28;;;3.75;;
60416;SDS011;46263;44.726;10.396;2024-03-23T05:16:08;5.53;;;3.03;;
60416;SDS011;46263;44.726;10.396;2024-03-23T05:18:34;5.13;;;3.40;;
60416;SDS011;46263;44.726;10.396;2024-03-23T05:21:00;5.60;;;3.25;;
60416;SDS011;46263;44.726;10.396;2024-03-23T05:23:25;5.10;;;2.78;;
60416;SDS011;46263;44.726;10.396;2024-03-23T05:25:51;6.13;;;3.20;;
60416;SDS011;46263;44.726;10.396;2024-03-23T05:28:20;7.65;;;2.90;;
60416;SDS011;46263;44.726;10.396;2024-03-23T05:30:55;7.65;;;3.03;;
60416;SDS011;46263;44.726;10.396;2024-03-23T05:33:22;4.50;;;2.97;;
60416;SDS011;46263;44.726;10.396;2024-03-23T05:35:55;6.40;;;3.15;;
60416;SDS011;46263;44.726;10.396;2024-03-23T05:38:22;8.55;;;3.28;;
60416;SDS011;46263;44.726;10.396;2024-03-23T05:41:00;10.23;;;3.30;;
60416;SDS011;46263;44.726;10.396;2024-03-23T05:43:25;5.28;;;3.30;;
60416;SDS011;46263;44.726;10.396;2024-03-23T05:45:56;5.32;;;2.90;;
60416;SDS011;46263;44.726;10.396;2024-03-23T05:48:23;3.38;;;2.40;;
60416;SDS011;46263;44.726;10.396;2024-03-23T05:50:49;4.82;;;2.92;;
60416;SDS011;46263;44.726;10.396;2024-03-23T05:53:16;3.78;;;2.45;;
60416;SDS011;46263;44.726;10.396;2024-03-23T05:55:42;6.88;;;2.53;;
60416;SDS011;46263;44.726;10.396;2024-03-23T05:58:08;5.13;;;3.30;;
60416;SDS011;46263;44.726;10.396;2024-03-23T06:00:33;4.72;;;2.88;;
60416;SDS011;46263;44.726;10.396;2024-03-23T06:02:59;4.75;;;2.55;;
60416;SDS011;46263;44.726;10.396;2024-03-23T06:05:25;5.63;;;3.10;;
60416;SDS011;46263;44.726;10.396;2024-03-23T06:07:50;3.45;;;2.85;;
60416;SDS011;46263;44.726;10.396;2024-03-23T06:10:16;5.25;;;2.85;;
60416;SDS011;46263;44.726;10.396;2024-03-23T06:12:41;4.15;;;2.83;;
60416;SDS011;46263;44.726;10.396;2024-03-23T06:15:07;5.25;;;3.20;;
60416;SDS011;46263;44.726;10.396;2024-03-23T06:17:38;4.00;;;2.90;;
60416;SDS011;46263;44.726;10.396;2024-03-23T06:20:04;5.63;;;2.83;;
60416;SDS011;46263;44.726;10.396;2024-03-23T06:22:33;5.30;;;3.28;;
60416;SDS011;46263;44.726;10.396;2024-03-23T06:24:59;4.88;;;2.75;;
60416;SDS011;46263;44.726;10.396;2024-03-23T06:27:25;3.05;;;2.45;;
60416;SDS011;46263;44.726;10.396;2024-03-23T06:29:50;5.78;;;3.60;;
60416;SDS011;46263;44.726;10.396;2024-03-23T06:32:16;5.95;;;2.97;;
60416;SDS011;46263;44.726;10.396;2024-03-23T06:34:42;7.47;;;3.13;;
60416;SDS011;46263;44.726;10.396;2024-03-23T06:37:07;5.03;;;3.35;;
60416;SDS011;46263;44.726;10.396;2024-03-23T06:39:35;5.60;;;3.53;;
60416;SDS011;46263;44.726;10.396;2024-03-23T06:42:03;3.97;;;3.08;;
60416;SDS011;46263;44.726;10.396;2024-03-23T06:44:29;4.88;;;2.88;;
60416;SDS011;46263;44.726;10.396;2024-03-23T06:46:55;8.35;;;2.90;;
60416;SDS011;46263;44.726;10.396;2024-03-23T06:49:22;4.28;;;2.80;;
60416;SDS011;46263;44.726;10.396;2024-03-23T06:51:48;6.45;;;2.90;;
60416;SDS011;46263;44.726;10.396;2024-03-23T06:54:13;6.10;;;3.08;;
60416;SDS011;46263;44.726;10.396;2024-03-23T06:56:38;6.65;;;3.15;;
60416;SDS011;46263;44.726;10.396;2024-03-23T06:59:04;7.32;;;3.00;;
60416;SDS011;46263;44.726;10.396;2024-03-23T07:01:29;6.72;;;2.88;;
60416;SDS011;46263;44.726;10.396;2024-03-23T07:03:55;5.80;;;3.20;;
60416;SDS011;46263;44.726;10.396;2024-03-23T07:06:20;7.68;;;2.83;;
60416;SDS011;46263;44.726;10.396;2024-03-23T07:08:46;3.50;;;2.60;;
60416;SDS011;46263;44.726;10.396;2024-03-23T07:11:12;9.60;;;3.63;;
60416;SDS011;46263;44.726;10.396;2024-03-23T07:13:37;8.38;;;4.45;;
60416;SDS011;46263;44.726;10.396;2024-03-23T07:16:03;6.80;;;4.78;;
60416;SDS011;46263;44.726;10.396;2024-03-23T07:18:28;7.40;;;4.40;;
60416;SDS011;46263;44.726;10.396;2024-03-23T07:20:54;9.23;;;3.40;;
60416;SDS011;46263;44.726;10.396;2024-03-23T07:23:24;5.45;;;3.55;;
60416;SDS011;46263;44.726;10.396;2024-03-23T07:25:56;5.82;;;3.50;;
60416;SDS011;46263;44.726;10.396;2024-03-23T07:28:25;5.65;;;3.35;;
60416;SDS011;46263;44.726;10.396;2024-03-23T07:31:05;5.53;;;3.22;;
60416;SDS011;46263;44.726;10.396;2024-03-23T07:33:31;3.45;;;2.90;;
60416;SDS011;46263;44.726;10.396;2024-03-23T07:35:58;6.47;;;3.03;;
60416;SDS011;46263;44.726;10.396;2024-03-23T07:38:26;4.45;;;3.40;;
60416;SDS011;46263;44.726;10.396;2024-03-23T07:40:52;7.15;;;3.58;;
60416;SDS011;46263;44.726;10.396;2024-03-23T07:43:21;6.28;;;3.67;;
60416;SDS011;46263;44.726;10.396;2024-03-23T07:45:53;8.95;;;3.47;;
60416;SDS011;46263;44.726;10.396;2024-03-23T07:48:20;4.60;;;2.58;;
60416;SDS011;46263;44.726;10.396;2024-03-23T07:50:55;4.60;;;2.80;;
60416;SDS011;46263;44.726;10.396;2024-03-23T07:53:31;4.70;;;2.90;;
60416;SDS011;46263;44.726;10.396;2024-03-23T07:55:59;4.82;;;2.63;;
60416;SDS011;46263;44.726;10.396;2024-03-23T07:58:29;3.60;;;2.30;;
60416;SDS011;46263;44.726;10.396;2024-03-23T08:00:55;3.28;;;2.25;;
60416;SDS011;46263;44.726;10.396;2024-03-23T08:03:21;6.78;;;2.25;;
60416;SDS011;46263;44.726;10.396;2024-03-23T08:05:47;3.42;;;2.17;;
60416;SDS011;46263;44.726;10.396;2024-03-23T08:08:13;4.78;;;2.70;;
60416;SDS011;46263;44.726;10.396;2024-03-23T08:10:51;4.60;;;2.55;;
60416;SDS011;46263;44.726;10.396;2024-03-23T08:13:18;3.30;;;2.60;;
60416;SDS011;46263;44.726;10.396;2024-03-23T08:15:44;4.40;;;2.70;;
60416;SDS011;46263;44.726;10.396;2024-03-23T08:18:13;3.20;;;2.65;;
60416;SDS011;46263;44.726;10.396;2024-03-23T08:20:40;3.75;;;2.58;;
60416;SDS011;46263;44.726;10.396;2024-03-23T08:23:06;3.72;;;2.38;;
60416;SDS011;46263;44.726;10.396;2024-03-23T08:25:32;4.03;;;3.03;;
60416;SDS011;46263;44.726;10.396;2024-03-23T08:27:58;3.88;;;3.00;;
60416;SDS011;46263;44.726;10.396;2024-03-23T08:30:24;7.60;;;3.38;;
60416;SDS011;46263;44.726;10.396;2024-03-23T08:32:50;3.40;;;2.50;;
60416;SDS011;46263;44.726;10.396;2024-03-23T08:35:15;5.18;;;3.70;;
60416;SDS011;46263;44.726;10.396;2024-03-23T08:37:41;4.90;;;3.05;;
60416;SDS011;46263;44.726;10.396;2024-03-23T08:40:06;7.90;;;3.42;;
60416;SDS011;46263;44.726;10.396;2024-03-23T08:42:33;4.72;;;3.35;;
60416;SDS011;46263;44.726;10.396;2024-03-23T08:44:59;3.17;;;2.75;;
60416;SDS011;46263;44.726;10.396;2024-03-23T08:47:24;6.35;;;3.33;;
60416;SDS011;46263;44.726;10.396;2024-03-23T08:49:50;5.13;;;2.97;;
60416;SDS011;46263;44.726;10.396;2024-03-23T08:52:16;4.97;;;3.22;;
60416;SDS011;46263;44.726;10.396;2024-03-23T08:54:41;3.47;;;2.75;;
60416;SDS011;46263;44.726;10.396;2024-03-23T08:57:07;3.22;;;2.55;;
60416;SDS011;46263;44.726;10.396;2024-03-23T08:59:33;5.68;;;2.20;;
60416;SDS011;46263;44.726;10.396;2024-03-23T09:01:58;3.97;;;2.00;;
60416;SDS011;46263;44.726;10.396;2024-03-23T09:04:23;5.82;;;2.05;;
60416;SDS011;46263;44.726;10.396;2024-03-23T09:06:49;3.15;;;1.70;;
60416;SDS011;46263;44.726;10.396;2024-03-23T09:09:15;4.35;;;2.08;;
60416;SDS011;46263;44.726;10.396;2024-03-23T09:11:40;1.83;;;1.60;;
60416;SDS011;46263;44.726;10.396;2024-03-23T09:14:06;5.70;;;2.47;;
60416;SDS011;46263;44.726;10.396;2024-03-23T09:16:31;3.20;;;2.00;;
60416;SDS011;46263;44.726;10.396;2024-03-23T09:18:57;9.68;;;2.50;;
60416;SDS011;46263;44.726;10.396;2024-03-23T09:21:22;2.30;;;1.90;;
60416;SDS011;46263;44.726;10.396;2024-03-23T09:23:48;9.38;;;1.90;;
60416;SDS011;46263;44.726;10.396;2024-03-23T09:26:14;3.42;;;1.75;;
60416;SDS011;46263;44.726;10.396;2024-03-23T09:28:40;2.78;;;1.95;;
60416;SDS011;46263;44.726;10.396;2024-03-23T09:31:05;2.25;;;1.80;;
60416;SDS011;46263;44.726;10.396;2024-03-23T09:33:39;1.77;;;1.67;;
60416;SDS011;46263;44.726;10.396;2024-03-23T09:36:05;2.97;;;2.10;;
60416;SDS011;46263;44.726;10.396;2024-03-23T09:38:31;9.43;;;2.10;;
60416;SDS011;46263;44.726;10.396;2024-03-23T09:40:57;5.53;;;1.40;;
60416;SDS011;46263;44.726;10.396;2024-03-23T09:43:24;2.67;;;1.42;;
60416;SDS011;46263;44.726;10.396;2024-03-23T09:45:49;1.65;;;1.48;;
60416;SDS011;46263;44.726;10.396;2024-03-23T09:48:15;2.85;;;1.48;;
60416;SDS011;46263;44.726;10.396;2024-03-23T09:50:42;4.35;;;2.15;;
60416;SDS011;46263;44.726;10.396;2024-03-23T09:53:10;2.20;;;1.63;;
60416;SDS011;46263;44.726;10.396;2024-03-23T09:55:36;2.83;;;1.95;;
60416;SDS011;46263;44.726;10.396;2024-03-23T09:58:03;2.58;;;1.85;;
60416;SDS011;46263;44.726;10.396;2024-03-23T10:00:30;2.90;;;1.80;;
60416;SDS011;46263;44.726;10.396;2024-03-23T10:02:59;5.93;;;1.50;;
60416;SDS011;46263;44.726;10.396;2024-03-23T10:05:28;8.27;;;4.82;;
60416;SDS011;46263;44.726;10.396;2024-03-23T10:07:56;20.30;;;10.63;;
60416;SDS011;46263;44.726;10.396;2024-03-23T10:10:22;21.77;;;9.85;;
60416;SDS011;46263;44.726;10.396;2024-03-23T10:12:50;20.63;;;9.02;;
60416;SDS011;46263;44.726;10.396;2024-03-23T10:15:22;29.75;;;10.60;;
60416;SDS011;46263;44.726;10.396;2024-03-23T10:17:49;18.55;;;8.35;;
60416;SDS011;46263;44.726;10.396;2024-03-23T10:20:22;18.95;;;10.18;;
60416;SDS011;46263;44.726;10.396;2024-03-23T10:22:51;18.33;;;8.43;;
60416;SDS011;46263;44.726;10.396;2024-03-23T10:25:17;16.50;;;8.07;;
60416;SDS011;46263;44.726;10.396;2024-03-23T10:27:57;20.27;;;10.48;;
60416;SDS011;46263;44.726;10.396;2024-03-23T10:30:24;18.05;;;9.60;;
60416;SDS011;46263;44.726;10.396;2024-03-23T10:32:57;16.73;;;8.48;;
60416;SDS011;46263;44.726;10.396;2024-03-23T10:35:42;19.60;;;9.02;;
60416;SDS011;46263;44.726;10.396;2024-03-23T10:38:08;16.63;;;8.93;;
60416;SDS011;46263;44.726;10.396;2024-03-23T10:40:34;16.67;;;8.48;;
60416;SDS011;46263;44.726;10.396;2024-03-23T10:43:00;16.77;;;9.02;;
60416;SDS011;46263;44.726;10.396;2024-03-23T10:45:31;16.08;;;8.77;;
60416;SDS011;46263;44.726;10.396;2024-03-23T10:47:57;23.95;;;11.23;;
60416;SDS011;46263;44.726;10.396;2024-03-23T10:50:22;24.63;;;10.45;;
60416;SDS011;46263;44.726;10.396;2024-03-23T10:52:49;19.90;;;10.70;;
60416;SDS011;46263;44.726;10.396;2024-03-23T10:55:17;19.60;;;8.98;;
60416;SDS011;46263;44.726;10.396;2024-03-23T10:57:53;15.02;;;7.18;;
60416;SDS011;46263;44.726;10.396;2024-03-23T11:00:20;16.10;;;7.60;;
60416;SDS011;46263;44.726;10.396;2024-03-23T11:02:47;16.92;;;6.85;;
60416;SDS011;46263;44.726;10.396;2024-03-23T11:07:51;10.20;;;5.00;;
60416;SDS011;46263;44.726;10.396;2024-03-23T11:10:27;14.02;;;6.90;;
60416;SDS011;46263;44.726;10.396;2024-03-23T11:12:55;9.80;;;3.78;;
60416;SDS011;46263;44.726;10.396;2024-03-23T11:15:21;2.63;;;1.60;;
60416;SDS011;46263;44.726;10.396;2024-03-23T11:18:02;4.63;;;2.00;;
60416;SDS011;46263;44.726;10.396;2024-03-23T11:20:32;1.63;;;1.33;;
60416;SDS011;46263;44.726;10.396;2024-03-23T11:22:59;3.08;;;2.03;;
60416;SDS011;46263;44.726;10.396;2024-03-23T11:25:25;2.30;;;1.70;;
60416;SDS011;46263;44.726;10.396;2024-03-23T11:27:55;1.40;;;1.30;;
60416;SDS011;46263;44.726;10.396;2024-03-23T11:30:42;4.10;;;1.25;;
60416;SDS011;46263;44.726;10.396;2024-03-23T11:33:08;5.63;;;1.75;;
60416;SDS011;46263;44.726;10.396;2024-03-23T11:35:34;3.03;;;1.90;;
60416;SDS011;46263;44.726;10.396;2024-03-23T11:38:05;2.80;;;1.80;;
60416;SDS011;46263;44.726;10.396;2024-03-23T11:40:38;5.70;;;1.88;;
60416;SDS011;46263;44.726;10.396;2024-03-23T11:43:04;3.58;;;1.67;;
60416;SDS011;46263;44.726;10.396;2024-03-23T11:45:35;9.63;;;1.95;;
60416;SDS011;46263;44.726;10.396;2024-03-23T11:50:37;4.88;;;1.75;;
60416;SDS011;46263;44.726;10.396;2024-03-23T11:53:09;14.05;;;1.73;;
60416;SDS011;46263;44.726;10.396;2024-03-23T11:55:41;5.78;;;1.65;;
60416;SDS011;46263;44.726;10.396;2024-03-23T11:58:07;5.97;;;1.70;;
60416;SDS011;46263;44.726;10.396;2024-03-23T12:00:33;1.90;;;1.50;;
60416;SDS011;46263;44.726;10.396;2024-03-23T12:03:00;1.90;;;1.42;;
60416;SDS011;46263;44.726;10.396;2024-03-23T12:05:29;4.57;;;1.88;;
60416;SDS011;46263;44.726;10.396;2024-03-23T12:07:55;5.05;;;1.73;;
60416;SDS011;46263;44.726;10.396;2024-03-23T12:10:40;4.57;;;1.73;;
60416;SDS011;46263;44.726;10.396;2024-03-23T12:13:05;3.97;;;1.60;;
60416;SDS011;46263;44.726;10.396;2024-03-23T12:15:31;2.88;;;1.70;;
60416;SDS011;46263;44.726;10.396;2024-03-23T12:18:06;1.98;;;1.33;;
60416;SDS011;46263;44.726;10.396;2024-03-23T12:20:33;3.88;;;1.70;;
60416;SDS011;46263;44.726;10.396;2024-03-23T12:23:05;2.05;;;1.48;;
60416;SDS011;46263;44.726;10.396;2024-03-23T12:25:35;2.72;;;1.70;;
60416;SDS011;46263;44.726;10.396;2024-03-23T12:28:01;3.40;;;1.60;;
60416;SDS011;46263;44.726;10.396;2024-03-23T12:30:27;1.48;;;1.38;;
60416;SDS011;46263;44.726;10.396;2024-03-23T12:32:53;2.10;;;1.40;;
60416;SDS011;46263;44.726;10.396;2024-03-23T12:35:19;3.97;;;1.98;;
60416;SDS011;46263;44.726;10.396;2024-03-23T12:37:46;2.75;;;1.63;;
60416;SDS011;46263;44.726;10.396;2024-03-23T12:40:11;2.53;;;1.63;;
60416;SDS011;46263;44.726;10.396;2024-03-23T12:42:37;3.90;;;1.70;;
60416;SDS011;46263;44.726;10.396;2024-03-23T12:45:02;2.85;;;1.25;;
60416;SDS011;46263;44.726;10.396;2024-03-23T12:47:30;1.40;;;1.30;;
60416;SDS011;46263;44.726;10.396;2024-03-23T12:49:55;3.60;;;1.58;;
60416;SDS011;46263;44.726;10.396;2024-03-23T12:52:21;2.45;;;1.35;;
60416;SDS011;46263;44.726;10.396;2024-03-23T12:54:49;3.08;;;1.40;;
60416;SDS011;46263;44.726;10.396;2024-03-23T12:57:14;3.72;;;1.20;;
60416;SDS011;46263;44.726;10.396;2024-03-23T12:59:40;3.38;;;1.38;;
60416;SDS011;46263;44.726;10.396;2024-03-23T13:02:05;3.83;;;1.23;;
60416;SDS011;46263;44.726;10.396;2024-03-23T13:04:32;0.80;;;0.80;;
60416;SDS011;46263;44.726;10.396;2024-03-23T13:06:57;3.05;;;1.08;;
60416;SDS011;46263;44.726;10.396;2024-03-23T13:09:23;3.05;;;1.02;;
60416;SDS011;46263;44.726;10.396;2024-03-23T13:11:48;3.08;;;1.00;;
60416;SDS011;46263;44.726;10.396;2024-03-23T13:14:14;3.20;;;1.20;;
60416;SDS011;46263;44.726;10.396;2024-03-23T13:16:41;1.20;;;0.90;;
60416;SDS011;46263;44.726;10.396;2024-03-23T13:19:07;2.40;;;1.20;;
60416;SDS011;46263;44.726;10.396;2024-03-23T13:21:32;1.65;;;1.00;;
60416;SDS011;46263;44.726;10.396;2024-03-23T13:23:58;2.33;;;1.15;;
60416;SDS011;46263;44.726;10.396;2024-03-23T13:26:23;1.73;;;0.73;;
60416;SDS011;46263;44.726;10.396;2024-03-23T13:28:49;1.20;;;0.90;;
60416;SDS011;46263;44.726;10.396;2024-03-23T13:31:14;4.72;;;1.98;;
60416;SDS011;46263;44.726;10.396;2024-03-23T13:33:40;2.20;;;1.40;;
60416;SDS011;46263;44.726;10.396;2024-03-23T13:36:07;1.35;;;1.00;;
60416;SDS011;46263;44.726;10.396;2024-03-23T13:38:33;1.77;;;0.95;;
60416;SDS011;46263;44.726;10.396;2024-03-23T13:40:59;3.55;;;1.10;;
60416;SDS011;46263;44.726;10.396;2024-03-23T13:43:25;1.88;;;1.08;;
60416;SDS011;46263;44.726;10.396;2024-03-23T13:45:56;2.17;;;0.95;;
60416;SDS011;46263;44.726;10.396;2024-03-23T13:48:23;20.90;;;1.75;;
60416;SDS011;46263;44.726;10.396;2024-03-23T13:53:28;2.05;;;0.80;;
60416;SDS011;46263;44.726;10.396;2024-03-23T13:55:54;4.22;;;1.83;;
60416;SDS011;46263;44.726;10.396;2024-03-23T13:58:20;4.22;;;1.15;;
60416;SDS011;46263;44.726;10.396;2024-03-23T14:00:46;1.75;;;1.00;;
60416;SDS011;46263;44.726;10.396;2024-03-23T14:03:12;4.88;;;1.40;;
60416;SDS011;46263;44.726;10.396;2024-03-23T14:05:38;6.75;;;1.42;;
60416;SDS011;46263;44.726;10.396;2024-03-23T14:08:07;2.17;;;1.33;;
60416;SDS011;46263;44.726;10.396;2024-03-23T14:10:34;7.07;;;1.98;;
60416;SDS011;46263;44.726;10.396;2024-03-23T14:13:03;2.17;;;1.08;;
60416;SDS011;46263;44.726;10.396;2024-03-23T14:15:28;2.20;;;1.00;;
60416;SDS011;46263;44.726;10.396;2024-03-23T14:17:55;2.40;;;1.67;;
60416;SDS011;46263;44.726;10.396;2024-03-23T14:20:21;3.53;;;1.10;;
60416;SDS011;46263;44.726;10.396;2024-03-23T14:22:47;2.28;;;1.33;;
60416;SDS011;46263;44.726;10.396;2024-03-23T14:25:13;3.20;;;1.52;;
60416;SDS011;46263;44.726;10.396;2024-03-23T14:27:39;2.38;;;1.27;;
60416;SDS011;46263;44.726;10.396;2024-03-23T14:30:04;5.97;;;1.50;;
60416;SDS011;46263;44.726;10.396;2024-03-23T14:32:31;3.85;;;1.25;;
60416;SDS011;46263;44.726;10.396;2024-03-23T14:35:02;3.20;;;1.50;;
60416;SDS011;46263;44.726;10.396;2024-03-23T14:39:57;4.68;;;1.45;;
60416;SDS011;46263;44.726;10.396;2024-03-23T14:42:23;3.00;;;1.52;;
60416;SDS011;46263;44.726;10.396;2024-03-23T14:44:49;3.25;;;1.48;;
60416;SDS011;46263;44.726;10.396;2024-03-23T14:47:16;3.55;;;1.67;;
60416;SDS011;46263;44.726;10.396;2024-03-23T14:49:43;3.22;;;1.13;;
60416;SDS011;46263;44.726;10.396;2024-03-23T14:52:12;5.82;;;1.25;;
60416;SDS011;46263;44.726;10.396;2024-03-23T14:54:38;4.22;;;0.88;;
60416;SDS011;46263;44.726;10.396;2024-03-23T14:57:04;3.88;;;1.30;;
60416;SDS011;46263;44.726;10.396;2024-03-23T14:59:29;2.70;;;1.00;;
60416;SDS011;46263;44.726;10.396;2024-03-23T15:01:55;3.40;;;1.45;;
60416;SDS011;46263;44.726;10.396;2024-03-23T15:04:21;2.47;;;1.00;;
60416;SDS011;46263;44.726;10.396;2024-03-23T15:06:46;3.28;;;1.30;;
60416;SDS011;46263;44.726;10.396;2024-03-23T15:09:14;1.63;;;1.15;;
60416;SDS011;46263;44.726;10.396;2024-03-23T15:11:40;1.77;;;1.02;;
60416;SDS011;46263;44.726;10.396;2024-03-23T15:14:05;2.08;;;1.30;;
60416;SDS011;46263;44.726;10.396;2024-03-23T15:16:32;1.77;;;1.00;;
60416;SDS011;46263;44.726;10.396;2024-03-23T15:18:58;4.03;;;1.02;;
60416;SDS011;46263;44.726;10.396;2024-03-23T15:21:23;3.17;;;0.90;;
60416;SDS011;46263;44.726;10.396;2024-03-23T15:23:48;1.38;;;0.85;;
60416;SDS011;46263;44.726;10.396;2024-03-23T15:26:14;2.70;;;0.80;;
60416;SDS011;46263;44.726;10.396;2024-03-23T15:28:41;4.93;;;1.35;;
60416;SDS011;46263;44.726;10.396;2024-03-23T15:31:09;2.05;;;1.15;;
60416;SDS011;46263;44.726;10.396;2024-03-23T15:33:34;4.07;;;1.05;;